sensor_id;sensor_type;location;lat;lon;timestamp;temperature;humidity
3876;DHT22;1953;51.222;6.624;2022-12-29T00:02:59;12.90;1.00
3876;DHT22;1953;51.222;6.624;2022-12-29T00:09:05;12.80;1.00
3876;DHT22;1953;51.222;6.624;2022-12-29T00:13:48;12.80;1.00
3876;DHT22;1953;51.222;6.624;2022-12-29T00:18:49;12.60;1.00
3876;DHT22;1953;51.222;6.624;2022-12-29T00:23:31;12.70;1.00
3876;DHT22;1953;51.222;6.624;2022-12-29T00:28:32;12.70;1.00
3876;DHT22;1953;51.222;6.624;2022-12-29T00:33:33;12.70;1.00
3876;DHT22;1953;51.222;6.624;2022-12-29T00:38:36;12.80;1.00
3876;DHT22;1953;51.222;6.624;2022-12-29T00:43:39;12.80;1.00
3876;DHT22;1953;51.222;6.624;2022-12-29T00:48:40;12.80;1.00
3876;DHT22;1953;51.222;6.624;2022-12-29T00:53:48;12.90;1.00
3876;DHT22;1953;51.222;6.624;2022-12-29T00:58:30;13.00;1.00
3876;DHT22;1953;51.222;6.624;2022-12-29T01:03:14;13.00;1.00
3876;DHT22;1953;51.222;6.624;2022-12-29T01:07:57;13.10;1.00
3876;DHT22;1953;51.222;6.624;2022-12-29T01:12:39;13.10;1.00
3876;DHT22;1953;51.222;6.624;2022-12-29T01:17:26;13.20;1.00
3876;DHT22;1953;51.222;6.624;2022-12-29T01:22:09;13.10;1.00
3876;DHT22;1953;51.222;6.624;2022-12-29T01:26:52;13.10;1.00
3876;DHT22;1953;51.222;6.624;2022-12-29T01:31:35;13.20;1.00
3876;DHT22;1953;51.222;6.624;2022-12-29T01:36:18;13.10;1.00
3876;DHT22;1953;51.222;6.624;2022-12-29T01:41:03;13.10;1.00
3876;DHT22;1953;51.222;6.624;2022-12-29T01:45:49;13.20;1.00
3876;DHT22;1953;51.222;6.624;2022-12-29T01:50:35;13.20;1.00
3876;DHT22;1953;51.222;6.624;2022-12-29T01:55:19;13.20;1.00
3876;DHT22;1953;51.222;6.624;2022-12-29T02:00:05;13.10;1.00
3876;DHT22;1953;51.222;6.624;2022-12-29T02:04:49;13.10;1.00
3876;DHT22;1953;51.222;6.624;2022-12-29T02:09:32;13.20;1.00
3876;DHT22;1953;51.222;6.624;2022-12-29T02:14:15;13.10;1.00
3876;DHT22;1953;51.222;6.624;2022-12-29T02:19:09;13.20;1.00
3876;DHT22;1953;51.222;6.624;2022-12-29T02:24:33;13.10;1.00
3876;DHT22;1953;51.222;6.624;2022-12-29T02:29:43;13.10;1.00
3876;DHT22;1953;51.222;6.624;2022-12-29T02:34:41;13.20;1.00
3876;DHT22;1953;51.222;6.624;2022-12-29T02:39:34;13.20;1.00
3876;DHT22;1953;51.222;6.624;2022-12-29T02:44:26;13.10;1.00
3876;DHT22;1953;51.222;6.624;2022-12-29T02:49:13;13.10;1.00
3876;DHT22;1953;51.222;6.624;2022-12-29T02:53:59;13.20;1.00
3876;DHT22;1953;51.222;6.624;2022-12-29T02:58:59;13.20;1.00
3876;DHT22;1953;51.222;6.624;2022-12-29T03:03:48;13.20;1.00
3876;DHT22;1953;51.222;6.624;2022-12-29T03:08:38;13.20;1.00
3876;DHT22;1953;51.222;6.624;2022-12-29T03:13:28;13.20;1.00
3876;DHT22;1953;51.222;6.624;2022-12-29T03:18:40;13.30;1.00
3876;DHT22;1953;51.222;6.624;2022-12-29T03:23:23;13.20;1.00
3876;DHT22;1953;51.222;6.624;2022-12-29T03:28:08;13.20;1.00
3876;DHT22;1953;51.222;6.624;2022-12-29T03:32:55;13.20;1.00
3876;DHT22;1953;51.222;6.624;2022-12-29T03:37:41;13.10;1.00
3876;DHT22;1953;51.222;6.624;2022-12-29T03:42:27;13.20;1.00
3876;DHT22;1953;51.222;6.624;2022-12-29T03:47:11;13.10;1.00
3876;DHT22;1953;51.222;6.624;2022-12-29T03:51:55;13.20;1.00
3876;DHT22;1953;51.222;6.624;2022-12-29T03:56:38;13.20;1.00
3876;DHT22;1953;51.222;6.624;2022-12-29T04:01:20;13.20;1.00
3876;DHT22;1953;51.222;6.624;2022-12-29T04:06:03;13.30;1.00
3876;DHT22;1953;51.222;6.624;2022-12-29T04:10:47;13.30;1.00
3876;DHT22;1953;51.222;6.624;2022-12-29T04:15:30;13.40;1.00
3876;DHT22;1953;51.222;6.624;2022-12-29T04:20:13;13.40;1.00
3876;DHT22;1953;51.222;6.624;2022-12-29T04:25:12;13.40;1.00
3876;DHT22;1953;51.222;6.624;2022-12-29T04:29:56;13.40;1.00
3876;DHT22;1953;51.222;6.624;2022-12-29T04:34:39;13.40;1.00
3876;DHT22;1953;51.222;6.624;2022-12-29T04:39:21;13.40;1.00
3876;DHT22;1953;51.222;6.624;2022-12-29T04:44:04;13.40;1.00
3876;DHT22;1953;51.222;6.624;2022-12-29T04:48:48;13.40;1.00
3876;DHT22;1953;51.222;6.624;2022-12-29T04:53:30;13.40;1.00
3876;DHT22;1953;51.222;6.624;2022-12-29T04:58:13;13.40;1.00
3876;DHT22;1953;51.222;6.624;2022-12-29T05:02:55;13.40;1.00
3876;DHT22;1953;51.222;6.624;2022-12-29T05:07:39;13.40;1.00
3876;DHT22;1953;51.222;6.624;2022-12-29T05:12:22;13.40;1.00
3876;DHT22;1953;51.222;6.624;2022-12-29T05:17:04;13.40;1.00
3876;DHT22;1953;51.222;6.624;2022-12-29T05:21:46;13.40;1.00
3876;DHT22;1953;51.222;6.624;2022-12-29T05:26:30;13.40;1.00
3876;DHT22;1953;51.222;6.624;2022-12-29T05:31:13;13.50;1.00
3876;DHT22;1953;51.222;6.624;2022-12-29T05:35:55;13.50;1.00
3876;DHT22;1953;51.222;6.624;2022-12-29T05:40:38;13.40;1.00
3876;DHT22;1953;51.222;6.624;2022-12-29T05:45:22;13.50;1.00
3876;DHT22;1953;51.222;6.624;2022-12-29T05:50:04;13.50;1.00
3876;DHT22;1953;51.222;6.624;2022-12-29T05:54:47;13.50;1.00
3876;DHT22;1953;51.222;6.624;2022-12-29T05:59:29;13.50;1.00
3876;DHT22;1953;51.222;6.624;2022-12-29T06:04:13;13.50;1.00
3876;DHT22;1953;51.222;6.624;2022-12-29T06:08:56;13.50;1.00
3876;DHT22;1953;51.222;6.624;2022-12-29T06:13:38;13.50;1.00
3876;DHT22;1953;51.222;6.624;2022-12-29T06:18:21;13.40;1.00
3876;DHT22;1953;51.222;6.624;2022-12-29T06:23:05;13.30;1.00
3876;DHT22;1953;51.222;6.624;2022-12-29T06:27:47;13.30;1.00
3876;DHT22;1953;51.222;6.624;2022-12-29T06:32:30;13.10;1.00
3876;DHT22;1953;51.222;6.624;2022-12-29T06:37:12;13.10;1.00
3876;DHT22;1953;51.222;6.624;2022-12-29T06:41:57;13.10;1.00
3876;DHT22;1953;51.222;6.624;2022-12-29T06:46:39;13.10;1.00
3876;DHT22;1953;51.222;6.624;2022-12-29T06:51:22;13.00;1.00
3876;DHT22;1953;51.222;6.624;2022-12-29T06:56:05;13.00;1.00
3876;DHT22;1953;51.222;6.624;2022-12-29T07:00:49;13.10;1.00
3876;DHT22;1953;51.222;6.624;2022-12-29T07:05:31;13.00;1.00
3876;DHT22;1953;51.222;6.624;2022-12-29T07:10:14;13.00;1.00
3876;DHT22;1953;51.222;6.624;2022-12-29T07:14:56;13.00;1.00
3876;DHT22;1953;51.222;6.624;2022-12-29T07:19:40;13.00;1.00
3876;DHT22;1953;51.222;6.624;2022-12-29T07:24:23;12.90;1.00
3876;DHT22;1953;51.222;6.624;2022-12-29T07:29:06;13.00;1.00
3876;DHT22;1953;51.222;6.624;2022-12-29T07:33:49;12.90;1.00
3876;DHT22;1953;51.222;6.624;2022-12-29T07:38:33;13.00;1.00
3876;DHT22;1953;51.222;6.624;2022-12-29T07:43:15;13.00;1.00
3876;DHT22;1953;51.222;6.624;2022-12-29T07:47:58;13.00;1.00
3876;DHT22;1953;51.222;6.624;2022-12-29T07:52:40;12.90;1.00
3876;DHT22;1953;51.222;6.624;2022-12-29T07:57:24;13.00;1.00
3876;DHT22;1953;51.222;6.624;2022-12-29T08:02:09;13.00;1.00
3876;DHT22;1953;51.222;6.624;2022-12-29T08:06:52;12.90;1.00
3876;DHT22;1953;51.222;6.624;2022-12-29T08:11:34;12.90;1.00
3876;DHT22;1953;51.222;6.624;2022-12-29T08:16:19;12.90;1.00
3876;DHT22;1953;51.222;6.624;2022-12-29T08:21:02;12.80;1.00
3876;DHT22;1953;51.222;6.624;2022-12-29T08:25:45;12.80;1.00
3876;DHT22;1953;51.222;6.624;2022-12-29T08:30:27;12.80;1.00
3876;DHT22;1953;51.222;6.624;2022-12-29T08:35:11;12.80;1.00
3876;DHT22;1953;51.222;6.624;2022-12-29T08:39:54;14.20;1.00
3876;DHT22;1953;51.222;6.624;2022-12-29T08:44:36;12.60;1.00
3876;DHT22;1953;51.222;6.624;2022-12-29T08:49:19;12.60;1.00
3876;DHT22;1953;51.222;6.624;2022-12-29T08:54:03;12.60;1.00
3876;DHT22;1953;51.222;6.624;2022-12-29T08:58:45;12.50;1.00
3876;DHT22;1953;51.222;6.624;2022-12-29T09:03:28;12.50;1.00
3876;DHT22;1953;51.222;6.624;2022-12-29T09:08:10;12.50;1.00
3876;DHT22;1953;51.222;6.624;2022-12-29T09:12:54;12.60;1.00
3876;DHT22;1953;51.222;6.624;2022-12-29T09:17:37;12.60;1.00
3876;DHT22;1953;51.222;6.624;2022-12-29T09:22:26;12.70;1.00
3876;DHT22;1953;51.222;6.624;2022-12-29T09:27:08;12.80;1.00
3876;DHT22;1953;51.222;6.624;2022-12-29T09:31:52;12.80;1.00
3876;DHT22;1953;51.222;6.624;2022-12-29T09:36:35;12.80;1.00
3876;DHT22;1953;51.222;6.624;2022-12-29T09:41:22;12.80;1.00
3876;DHT22;1953;51.222;6.624;2022-12-29T09:46:15;12.90;1.00
3876;DHT22;1953;51.222;6.624;2022-12-29T09:51:03;12.80;1.00
3876;DHT22;1953;51.222;6.624;2022-12-29T09:55:51;12.80;1.00
3876;DHT22;1953;51.222;6.624;2022-12-29T10:00:38;12.80;1.00
3876;DHT22;1953;51.222;6.624;2022-12-29T10:05:29;12.90;1.00
3876;DHT22;1953;51.222;6.624;2022-12-29T10:10:23;13.00;1.00
3876;DHT22;1953;51.222;6.624;2022-12-29T10:15:14;13.00;1.00
3876;DHT22;1953;51.222;6.624;2022-12-29T10:20:27;12.40;1.00
3876;DHT22;1953;51.222;6.624;2022-12-29T10:25:17;13.10;1.00
3876;DHT22;1953;51.222;6.624;2022-12-29T10:30:02;13.00;1.00
3876;DHT22;1953;51.222;6.624;2022-12-29T10:34:48;13.00;1.00
3876;DHT22;1953;51.222;6.624;2022-12-29T10:39:38;13.00;1.00
3876;DHT22;1953;51.222;6.624;2022-12-29T10:44:27;13.00;1.00
3876;DHT22;1953;51.222;6.624;2022-12-29T10:49:15;13.10;1.00
3876;DHT22;1953;51.222;6.624;2022-12-29T10:54:03;13.10;1.00
3876;DHT22;1953;51.222;6.624;2022-12-29T10:58:49;13.20;1.00
3876;DHT22;1953;51.222;6.624;2022-12-29T11:03:46;13.30;1.00
3876;DHT22;1953;51.222;6.624;2022-12-29T11:08:33;13.30;1.00
3876;DHT22;1953;51.222;6.624;2022-12-29T11:13:19;13.20;1.00
3876;DHT22;1953;51.222;6.624;2022-12-29T11:18:18;13.20;1.00
3876;DHT22;1953;51.222;6.624;2022-12-29T11:23:03;13.10;1.00
3876;DHT22;1953;51.222;6.624;2022-12-29T11:27:55;13.10;1.00
3876;DHT22;1953;51.222;6.624;2022-12-29T11:32:50;13.10;1.00
3876;DHT22;1953;51.222;6.624;2022-12-29T11:37:37;13.10;1.00
3876;DHT22;1953;51.222;6.624;2022-12-29T11:42:23;13.10;1.00
3876;DHT22;1953;51.222;6.624;2022-12-29T11:47:19;13.00;1.00
3876;DHT22;1953;51.222;6.624;2022-12-29T11:52:04;13.10;1.00
3876;DHT22;1953;51.222;6.624;2022-12-29T11:56:48;13.10;1.00
3876;DHT22;1953;51.222;6.624;2022-12-29T12:01:35;13.20;1.00
3876;DHT22;1953;51.222;6.624;2022-12-29T12:10:12;13.00;1.00
3876;DHT22;1953;51.222;6.624;2022-12-29T12:14:58;13.00;1.00
3876;DHT22;1953;51.222;6.624;2022-12-29T12:19:44;13.10;1.00
3876;DHT22;1953;51.222;6.624;2022-12-29T12:24:37;13.00;1.00
3876;DHT22;1953;51.222;6.624;2022-12-29T12:29:25;12.90;1.00
3876;DHT22;1953;51.222;6.624;2022-12-29T12:34:15;12.90;1.00
3876;DHT22;1953;51.222;6.624;2022-12-29T12:39:02;12.90;1.00
3876;DHT22;1953;51.222;6.624;2022-12-29T12:43:51;12.90;1.00
3876;DHT22;1953;51.222;6.624;2022-12-29T12:53:59;12.90;1.00
3876;DHT22;1953;51.222;6.624;2022-12-29T12:58:52;12.90;1.00
3876;DHT22;1953;51.222;6.624;2022-12-29T13:03:49;12.80;1.00
3876;DHT22;1953;51.222;6.624;2022-12-29T13:08:49;12.70;1.00
3876;DHT22;1953;51.222;6.624;2022-12-29T13:13:49;12.70;1.00
3876;DHT22;1953;51.222;6.624;2022-12-29T13:18:37;12.60;1.00
3876;DHT22;1953;51.222;6.624;2022-12-29T13:23:30;12.70;1.00
3876;DHT22;1953;51.222;6.624;2022-12-29T13:28:19;12.60;1.00
3876;DHT22;1953;51.222;6.624;2022-12-29T13:33:12;12.60;1.00
3876;DHT22;1953;51.222;6.624;2022-12-29T13:38:05;12.70;1.00
3876;DHT22;1953;51.222;6.624;2022-12-29T13:42:54;12.70;1.00
3876;DHT22;1953;51.222;6.624;2022-12-29T13:47:40;12.70;1.00
3876;DHT22;1953;51.222;6.624;2022-12-29T13:52:28;12.70;1.00
3876;DHT22;1953;51.222;6.624;2022-12-29T13:57:26;12.70;1.00
3876;DHT22;1953;51.222;6.624;2022-12-29T14:02:21;12.70;1.00
3876;DHT22;1953;51.222;6.624;2022-12-29T14:07:13;12.70;1.00
3876;DHT22;1953;51.222;6.624;2022-12-29T14:11:56;12.70;1.00
3876;DHT22;1953;51.222;6.624;2022-12-29T14:16:39;12.70;1.00
3876;DHT22;1953;51.222;6.624;2022-12-29T14:21:25;12.60;1.00
3876;DHT22;1953;51.222;6.624;2022-12-29T14:26:13;12.60;1.00
3876;DHT22;1953;51.222;6.624;2022-12-29T14:30:57;12.60;1.00
3876;DHT22;1953;51.222;6.624;2022-12-29T14:35:42;12.60;1.00
3876;DHT22;1953;51.222;6.624;2022-12-29T14:40:26;12.50;1.00
3876;DHT22;1953;51.222;6.624;2022-12-29T14:45:26;12.50;1.00
3876;DHT22;1953;51.222;6.624;2022-12-29T14:50:14;12.50;1.00
3876;DHT22;1953;51.222;6.624;2022-12-29T14:54:57;12.50;1.00
3876;DHT22;1953;51.222;6.624;2022-12-29T14:59:43;12.50;1.00
3876;DHT22;1953;51.222;6.624;2022-12-29T15:04:31;12.40;1.00
3876;DHT22;1953;51.222;6.624;2022-12-29T15:09:23;12.40;1.00
3876;DHT22;1953;51.222;6.624;2022-12-29T15:14:27;12.30;1.00
3876;DHT22;1953;51.222;6.624;2022-12-29T15:19:22;12.30;1.00
3876;DHT22;1953;51.222;6.624;2022-12-29T15:24:05;12.20;1.00
3876;DHT22;1953;51.222;6.624;2022-12-29T15:28:50;12.20;1.00
3876;DHT22;1953;51.222;6.624;2022-12-29T15:33:38;12.20;1.00
3876;DHT22;1953;51.222;6.624;2022-12-29T15:38:24;12.10;1.00
3876;DHT22;1953;51.222;6.624;2022-12-29T15:43:34;11.90;1.00
3876;DHT22;1953;51.222;6.624;2022-12-29T15:48:21;12.10;1.00
3876;DHT22;1953;51.222;6.624;2022-12-29T15:53:10;11.80;1.00
3876;DHT22;1953;51.222;6.624;2022-12-29T15:57:58;11.80;1.00
3876;DHT22;1953;51.222;6.624;2022-12-29T16:02:40;11.80;1.00
3876;DHT22;1953;51.222;6.624;2022-12-29T16:07:26;11.80;1.00
3876;DHT22;1953;51.222;6.624;2022-12-29T16:12:16;11.80;1.00
3876;DHT22;1953;51.222;6.624;2022-12-29T16:17:03;11.80;1.00
3876;DHT22;1953;51.222;6.624;2022-12-29T16:21:46;11.80;1.00
3876;DHT22;1953;51.222;6.624;2022-12-29T16:26:29;11.80;1.00
3876;DHT22;1953;51.222;6.624;2022-12-29T16:31:19;11.70;1.00
3876;DHT22;1953;51.222;6.624;2022-12-29T16:36:25;11.70;1.00
3876;DHT22;1953;51.222;6.624;2022-12-29T16:41:08;11.70;1.00
3876;DHT22;1953;51.222;6.624;2022-12-29T16:46:15;11.70;1.00
3876;DHT22;1953;51.222;6.624;2022-12-29T16:51:03;11.70;1.00
3876;DHT22;1953;51.222;6.624;2022-12-29T16:55:47;11.70;1.00
3876;DHT22;1953;51.222;6.624;2022-12-29T17:00:35;11.70;1.00
3876;DHT22;1953;51.222;6.624;2022-12-29T17:05:18;11.70;1.00
3876;DHT22;1953;51.222;6.624;2022-12-29T17:10:02;11.70;1.00
3876;DHT22;1953;51.222;6.624;2022-12-29T17:14:46;11.70;1.00
3876;DHT22;1953;51.222;6.624;2022-12-29T17:19:32;11.60;1.00
3876;DHT22;1953;51.222;6.624;2022-12-29T17:24:16;11.60;1.00
3876;DHT22;1953;51.222;6.624;2022-12-29T17:29:01;11.60;1.00
3876;DHT22;1953;51.222;6.624;2022-12-29T17:33:43;11.50;1.00
3876;DHT22;1953;51.222;6.624;2022-12-29T17:38:28;11.20;1.00
3876;DHT22;1953;51.222;6.624;2022-12-29T17:43:13;10.80;1.00
3876;DHT22;1953;51.222;6.624;2022-12-29T17:47:58;10.50;1.00
3876;DHT22;1953;51.222;6.624;2022-12-29T17:52:42;10.10;1.00
3876;DHT22;1953;51.222;6.624;2022-12-29T17:57:25;10.00;1.00
3876;DHT22;1953;51.222;6.624;2022-12-29T18:02:26;9.80;1.00
3876;DHT22;1953;51.222;6.624;2022-12-29T18:07:10;9.80;1.00
3876;DHT22;1953;51.222;6.624;2022-12-29T18:11:52;9.80;1.00
3876;DHT22;1953;51.222;6.624;2022-12-29T18:16:35;9.80;1.00
3876;DHT22;1953;51.222;6.624;2022-12-29T18:21:19;9.80;1.00
3876;DHT22;1953;51.222;6.624;2022-12-29T18:26:05;9.90;1.00
3876;DHT22;1953;51.222;6.624;2022-12-29T18:30:49;10.00;1.00
3876;DHT22;1953;51.222;6.624;2022-12-29T18:35:37;10.10;1.00
3876;DHT22;1953;51.222;6.624;2022-12-29T18:40:19;10.10;1.00
3876;DHT22;1953;51.222;6.624;2022-12-29T18:45:12;10.10;1.00
3876;DHT22;1953;51.222;6.624;2022-12-29T18:49:56;10.10;1.00
3876;DHT22;1953;51.222;6.624;2022-12-29T18:54:38;10.10;1.00
3876;DHT22;1953;51.222;6.624;2022-12-29T18:59:21;10.10;1.00
3876;DHT22;1953;51.222;6.624;2022-12-29T19:04:05;10.00;1.00
3876;DHT22;1953;51.222;6.624;2022-12-29T19:08:47;10.10;1.00
3876;DHT22;1953;51.222;6.624;2022-12-29T19:13:30;10.10;1.00
3876;DHT22;1953;51.222;6.624;2022-12-29T19:18:17;10.00;1.00
3876;DHT22;1953;51.222;6.624;2022-12-29T19:23:03;10.00;1.00
3876;DHT22;1953;51.222;6.624;2022-12-29T19:27:46;10.00;1.00
3876;DHT22;1953;51.222;6.624;2022-12-29T19:32:28;10.00;1.00
3876;DHT22;1953;51.222;6.624;2022-12-29T19:37:10;9.90;1.00
3876;DHT22;1953;51.222;6.624;2022-12-29T19:41:54;9.90;1.00
3876;DHT22;1953;51.222;6.624;2022-12-29T19:46:37;9.80;1.00
3876;DHT22;1953;51.222;6.624;2022-12-29T19:51:19;9.80;1.00
3876;DHT22;1953;51.222;6.624;2022-12-29T19:56:03;9.80;1.00
3876;DHT22;1953;51.222;6.624;2022-12-29T20:00:47;9.70;1.00
3876;DHT22;1953;51.222;6.624;2022-12-29T20:05:30;9.70;1.00
3876;DHT22;1953;51.222;6.624;2022-12-29T20:10:12;9.60;1.00
3876;DHT22;1953;51.222;6.624;2022-12-29T20:14:54;9.50;1.00
3876;DHT22;1953;51.222;6.624;2022-12-29T20:19:40;9.50;1.00
3876;DHT22;1953;51.222;6.624;2022-12-29T20:24:22;9.50;1.00
3876;DHT22;1953;51.222;6.624;2022-12-29T20:29:05;9.50;1.00
3876;DHT22;1953;51.222;6.624;2022-12-29T20:33:47;9.60;1.00
3876;DHT22;1953;51.222;6.624;2022-12-29T20:38:31;10.70;1.00
3876;DHT22;1953;51.222;6.624;2022-12-29T20:43:14;9.40;1.00
3876;DHT22;1953;51.222;6.624;2022-12-29T20:47:57;9.40;1.00
3876;DHT22;1953;51.222;6.624;2022-12-29T20:52:40;9.40;1.00
3876;DHT22;1953;51.222;6.624;2022-12-29T20:57:24;9.50;1.00
3876;DHT22;1953;51.222;6.624;2022-12-29T21:02:08;9.40;1.00
3876;DHT22;1953;51.222;6.624;2022-12-29T21:06:58;9.40;1.00
3876;DHT22;1953;51.222;6.624;2022-12-29T21:11:40;9.40;1.00
3876;DHT22;1953;51.222;6.624;2022-12-29T21:16:24;9.40;1.00
3876;DHT22;1953;51.222;6.624;2022-12-29T21:21:07;9.40;1.00
3876;DHT22;1953;51.222;6.624;2022-12-29T21:25:50;9.40;1.00
3876;DHT22;1953;51.222;6.624;2022-12-29T21:30:34;9.50;1.00
3876;DHT22;1953;51.222;6.624;2022-12-29T21:35:18;9.30;1.00
3876;DHT22;1953;51.222;6.624;2022-12-29T21:40:00;9.30;1.00
3876;DHT22;1953;51.222;6.624;2022-12-29T21:44:44;9.30;1.00
3876;DHT22;1953;51.222;6.624;2022-12-29T21:49:44;9.30;1.00
3876;DHT22;1953;51.222;6.624;2022-12-29T21:54:29;9.30;1.00
3876;DHT22;1953;51.222;6.624;2022-12-29T21:59:29;9.30;1.00
3876;DHT22;1953;51.222;6.624;2022-12-29T22:04:29;9.30;1.00
3876;DHT22;1953;51.222;6.624;2022-12-29T22:09:31;9.30;1.00
3876;DHT22;1953;51.222;6.624;2022-12-29T22:14:31;9.30;1.00
3876;DHT22;1953;51.222;6.624;2022-12-29T22:19:14;9.30;1.00
3876;DHT22;1953;51.222;6.624;2022-12-29T22:23:56;9.20;1.00
3876;DHT22;1953;51.222;6.624;2022-12-29T22:28:42;9.20;1.00
3876;DHT22;1953;51.222;6.624;2022-12-29T22:33:26;9.20;1.00
3876;DHT22;1953;51.222;6.624;2022-12-29T22:38:08;9.20;1.00
3876;DHT22;1953;51.222;6.624;2022-12-29T22:42:50;9.20;1.00
3876;DHT22;1953;51.222;6.624;2022-12-29T22:47:34;9.10;1.00
3876;DHT22;1953;51.222;6.624;2022-12-29T22:52:17;9.10;1.00
3876;DHT22;1953;51.222;6.624;2022-12-29T22:56:59;9.10;1.00
3876;DHT22;1953;51.222;6.624;2022-12-29T23:01:42;9.00;1.00
3876;DHT22;1953;51.222;6.624;2022-12-29T23:06:26;9.00;1.00
3876;DHT22;1953;51.222;6.624;2022-12-29T23:11:10;9.00;1.00
3876;DHT22;1953;51.222;6.624;2022-12-29T23:15:52;9.00;1.00
3876;DHT22;1953;51.222;6.624;2022-12-29T23:20:35;9.00;1.00
3876;DHT22;1953;51.222;6.624;2022-12-29T23:25:19;9.00;1.00
3876;DHT22;1953;51.222;6.624;2022-12-29T23:30:01;9.00;1.00
3876;DHT22;1953;51.222;6.624;2022-12-29T23:34:43;9.00;1.00
3876;DHT22;1953;51.222;6.624;2022-12-29T23:39:26;9.00;1.00
3876;DHT22;1953;51.222;6.624;2022-12-29T23:44:10;9.00;1.00
3876;DHT22;1953;51.222;6.624;2022-12-29T23:48:53;8.90;1.00
3876;DHT22;1953;51.222;6.624;2022-12-29T23:53:37;8.80;1.00
3876;DHT22;1953;51.222;6.624;2022-12-29T23:58:20;8.80;1.00
